KFVE

Northern Aroostook Regional Airport

Frenchville, Maine, USA
METAR KFVE 172053Z AUTO 30008KT 10SM CLR M17/M22 A3007 RMK AO2 SLP207 T11671222 51009
Observed Flight Rules
Dec-17 @ 20:53 UTC (27 minutes ago) Visual Flight Rules
Wind Visibility Clouds
300° at 8 knots 10 miles
  • Clear skies
Temperatures Readings
Current -17°C / 1°F
Dewpoint -22°C / -8°F
Humidity 65%
Altimeter 30.07" Hg
Pressure 1020.7 hPa
Elevation 301
METAR KFVE 172053Z AUTO 30008KT 10SM CLR M17/M22 A3007 RMK AO2 SLP207 T11671222 51009
Observed Flight Rules
Dec-17 @ 20:53 UTC
(27 minutes ago)
VFR
Wind Visibility
300° at 8 knots 10 miles
Clouds
  • Clear skies
Temperature Dewpoint
-17°C / 1°F -22°C / -8°F
Humidity Altimeter Pressure
65% 30.07" Hg 1020.7 hPa